Time;durP1;ratioP1;P1;durP2;ratioP2;P2;SDS_P1;SDS_P2;PMS_P1;PMS_P2;Temp;Humidity;BMP_temperature;BMP_pressure;BME280_temperature;BME280_humidity;BME280_pressure;Samples;Min_cycle;Max_cycle;Signal;HPM_P1;HPM_P2
2021/05/17 09:21:11;;;;;;;7.18;1.50;;;;;;;18.97;42.43;100081.59;4207185;27;20914;-44
2021/05/17 09:23:44;;;;;;;7.68;1.70;;;;;;;19.18;41.89;100084.09;4202974;28;20051;-44
2021/05/17 09:26:15;;;;;;;8.57;1.83;;;;;;;19.24;41.79;100082.91;4171971;28;20444;-42
2021/05/17 09:28:23;;;;;;;3.70;1.50;;;;;;;19.27;41.46;100087.03;4127023;28;20147;-42
2021/05/17 09:30:23;;;;;;;6.47;1.75;;;;;;;19.12;41.89;100088.88;4160330;28;20045;-43
2021/05/17 09:32:32;;;;;;;6.03;1.95;;;;;;;19.30;41.37;100094.75;4152683;28;20117;-44
2021/05/17 09:34:34;;;;;;;5.93;2.10;;;;;;;19.38;41.58;100096.84;4144726;28;20895;-43
2021/05/17 09:36:41;;;;;;;5.70;2.35;;;;;;;19.37;41.28;100104.34;4152751;28;20109;-42
2021/05/17 09:38:42;;;;;;;1.98;1.67;;;;;;;19.41;41.29;100107.34;4148543;28;20033;-42
2021/05/17 09:40:42;;;;;;;5.93;1.73;;;;;;;19.41;41.35;100110.94;4148798;28;20369;-42
2021/05/17 09:42:42;;;;;;;6.95;2.10;;;;;;;19.42;41.00;100117.31;4150920;28;20038;-42
2021/05/17 09:44:45;;;;;;;4.15;1.95;;;;;;;19.29;41.33;100085.59;4149038;28;20037;-42
2021/05/17 09:47:08;;;;;;;4.85;1.60;;;;;;;19.47;40.78;100114.47;4156164;28;20558;-43
2021/05/17 09:49:09;;;;;;;3.13;1.63;;;;;;;19.47;41.31;100120.00;4163395;28;20075;-42
2021/05/17 09:51:13;;;;;;;5.57;1.30;;;;;;;19.49;41.21;100122.50;4159782;28;20026;-42
2021/05/17 09:53:24;;;;;;;3.08;1.48;;;;;;;19.49;41.56;100120.53;4152318;28;20483;-41
2021/05/17 09:55:24;;;;;;;;;;;;;;;19.52;41.03;100119.94;4162503;28;20042;-41
2021/05/17 09:57:44;;;;;;;6.32;1.67;;;;;;;19.50;41.61;100121.38;4153461;28;19925;-40
2021/05/17 09:59:49;;;;;;;6.30;1.65;;;;;;;19.52;41.55;100119.94;4147370;28;20057;-43
2021/05/17 10:01:49;;;;;;;4.10;1.73;;;;;;;19.56;41.44;100123.75;4152852;28;20036;-41
2021/05/17 10:03:53;;;;;;;2.70;1.63;;;;;;;19.58;41.35;100127.06;4157306;28;20758;-40
2021/05/17 10:05:53;;;;;;;2.70;1.23;;;;;;;19.60;41.35;100127.59;4153567;28;20068;-42
2021/05/17 10:07:59;;;;;;;3.40;1.90;;;;;;;19.56;41.73;100129.31;4151917;28;20104;-44
2021/05/17 10:10:00;;;;;;;5.35;1.25;;;;;;;19.63;41.14;100125.31;4159991;28;20029;-41
2021/05/17 10:12:00;;;;;;;3.03;0.82;;;;;;;19.67;41.25;100127.19;4160532;28;20033;-43
2021/05/17 10:14:01;;;;;;;2.33;1.30;;;;;;;19.66;41.38;100139.41;4158326;28;20029;-42
2021/05/17 10:16:10;;;;;;;8.00;0.90;;;;;;;19.65;41.26;100132.25;4153780;28;20037;-42
2021/05/17 10:18:14;;;;;;;4.03;1.35;;;;;;;19.71;40.99;100138.50;4151994;28;20029;-42
2021/05/17 10:20:18;;;;;;;1.58;0.98;;;;;;;19.67;41.25;100132.75;4154116;28;20058;-41
2021/05/17 10:22:19;;;;;;;2.05;0.98;;;;;;;19.76;41.00;100146.78;4158829;28;20036;-41
2021/05/17 10:24:19;;;;;;;1.88;1.10;;;;;;;19.76;41.15;100141.22;4148506;28;20141;-42
2021/05/17 10:26:24;;;;;;;4.63;1.55;;;;;;;19.78;41.48;100141.75;4155548;28;20040;-41
2021/05/17 10:28:25;;;;;;;1.58;1.48;;;;;;;19.81;41.20;100151.44;4154490;28;20037;-41
2021/05/17 10:30:32;;;;;;;1.98;1.33;;;;;;;19.77;41.55;100149.25;4147859;28;20038;-43
2021/05/17 10:33:02;;;;;;;4.03;1.85;;;;;;;19.83;41.24;100147.19;4142670;28;20030;-42
2021/05/17 10:35:17;;;;;;;5.18;1.00;;;;;;;19.77;41.03;100140.94;4133883;28;20663;-42
2021/05/17 10:37:20;;;;;;;6.70;1.30;;;;;;;19.85;40.95;100152.50;4144869;28;20026;-42
2021/05/17 10:39:28;;;;;;;2.83;1.40;;;;;;;19.88;40.78;100163.84;4151739;28;20058;-43
2021/05/17 10:42:08;;;;;;;1.90;1.13;;;;;;;19.85;40.77;100163.59;4147805;28;20065;-43
2021/05/17 10:48:32;;;;;;;2.10;1.90;;;;;;;19.88;41.23;100176.88;4149070;28;20113;-43
2021/05/17 10:50:32;;;;;;;2.35;1.40;;;;;;;20.00;40.73;100176.41;4140559;28;20032;-41
2021/05/17 10:52:36;;;;;;;2.20;1.58;;;;;;;20.00;40.82;100179.19;4139972;28;20042;-42
2021/05/17 10:54:39;;;;;;;1.48;1.08;;;;;;;20.15;40.50;100180.91;4141832;28;20038;-43
2021/05/17 10:56:57;;;;;;;2.88;1.23;;;;;;;20.05;40.16;100182.72;4139342;28;20030;-42
2021/05/17 11:01:26;;;;;;;4.32;1.17;;;;;;;20.18;40.55;100196.97;4139920;28;20048;-41
2021/05/17 11:03:27;;;;;;;2.88;1.10;;;;;;;20.28;40.38;100194.84;4140397;28;20022;-41
2021/05/17 11:05:31;;;;;;;5.30;1.35;;;;;;;20.22;40.41;100190.50;4144149;28;20100;-42
2021/05/17 11:07:47;;;;;;;4.15;1.30;;;;;;;20.22;40.75;100195.22;4142366;28;20432;-41
2021/05/17 11:09:48;;;;;;;2.40;1.23;;;;;;;20.20;40.68;100203.84;4141647;28;20033;-42
2021/05/17 11:11:49;;;;;;;5.45;1.10;;;;;;;20.28;40.45;100199.56;4141716;28;20475;-44
2021/05/17 11:14:20;;;;;;;4.93;1.50;;;;;;;20.28;39.83;100210.66;4142903;28;20037;-42
2021/05/17 11:16:20;;;;;;;1.55;1.20;;;;;;;20.29;40.32;100206.78;4145742;28;20112;-43
2021/05/17 11:18:23;;;;;;;2.22;1.30;;;;;;;20.26;40.53;100207.38;4143848;28;20068;-42
2021/05/17 11:20:48;;;;;;;2.75;1.30;;;;;;;20.35;40.52;100218.63;4143622;28;20136;-42
2021/05/17 11:22:53;;;;;;;1.73;1.05;;;;;;;20.44;40.24;100231.53;4142326;28;20080;-42
2021/05/17 11:24:56;;;;;;;3.55;1.17;;;;;;;20.44;40.45;100230.69;4140935;28;20397;-43
2021/05/17 11:27:00;;;;;;;1.67;1.15;;;;;;;20.44;40.27;100220.41;4137681;28;20038;-42
2021/05/17 11:29:03;;;;;;;3.60;1.15;;;;;;;20.53;40.53;100230.81;4141422;28;20076;-43
2021/05/17 11:31:39;;;;;;;3.55;1.30;;;;;;;20.43;40.09;100227.09;4147029;28;20120;-43
2021/05/17 11:34:01;;;;;;;1.35;1.15;;;;;;;20.53;40.07;100237.22;4142452;28;20037;-41
2021/05/17 11:36:18;;;;;;;2.15;1.48;;;;;;;20.59;40.13;100238.81;4146818;28;20034;-42
2021/05/17 11:38:19;;;;;;;18.60;1.55;;;;;;;20.69;39.87;100240.56;4136710;28;20025;-41
2021/05/17 11:40:28;;;;;;;2.00;1.15;;;;;;;20.74;39.77;100240.47;4144561;28;20451;-42
2021/05/17 11:42:35;;;;;;;1.38;1.05;;;;;;;20.74;39.99;100246.03;4146998;28;20480;-41
2021/05/17 11:44:44;;;;;;;1.58;1.05;;;;;;;20.81;39.84;100251.22;4139194;28;20030;-44
2021/05/17 11:46:47;;;;;;;3.30;0.85;;;;;;;20.81;39.99;100249.25;4142495;28;20029;-41
2021/05/17 11:48:47;;;;;;;1.45;1.05;;;;;;;20.87;39.89;100258.31;4141958;28;20041;-42
2021/05/17 11:50:48;;;;;;;0.98;0.88;;;;;;;20.82;39.87;100247.28;4142918;28;20034;-42
2021/05/17 11:52:49;;;;;;;2.00;1.15;;;;;;;20.95;39.73;100252.03;4144144;28;20022;-41
2021/05/17 11:54:51;;;;;;;1.55;1.02;;;;;;;21.06;39.76;100262.97;4145303;28;20037;-42
2021/05/17 11:56:54;;;;;;;1.58;0.90;;;;;;;21.10;39.85;100270.41;4143078;28;20038;-41
2021/05/17 11:59:08;;;;;;;1.30;0.98;;;;;;;21.18;39.81;100269.66;4144279;28;20030;-42
2021/05/17 12:01:16;;;;;;;3.40;0.90;;;;;;;21.22;39.84;100271.84;4138001;28;20422;-42
2021/05/17 12:03:17;;;;;;;1.55;1.25;;;;;;;21.19;39.80;100268.53;4139167;28;20084;-40
2021/05/17 12:05:18;;;;;;;2.83;0.95;;;;;;;21.29;39.54;100273.09;4138255;28;20029;-42
2021/05/17 12:07:19;;;;;;;2.55;1.08;;;;;;;21.31;39.85;100273.59;4140739;28;20057;-42
2021/05/17 12:09:27;;;;;;;1.50;1.05;;;;;;;21.36;39.68;100273.53;4141120;28;20046;-44
2021/05/17 12:11:27;;;;;;;2.30;1.15;;;;;;;21.37;39.73;100283.50;4141825;28;20542;-43
2021/05/17 12:13:28;;;;;;;2.70;1.00;;;;;;;21.36;40.65;100287.44;4144976;28;20038;-41
2021/05/17 12:15:28;;;;;;;1.73;1.50;;;;;;;21.31;39.11;100297.84;4139713;28;20041;-41
2021/05/17 12:17:34;;;;;;;2.45;1.42;;;;;;;21.34;39.54;100294.44;4141175;28;20435;-40
2021/05/17 12:19:35;;;;;;;3.05;0.93;;;;;;;21.54;39.12;100301.56;4148269;28;20044;-41
2021/05/17 12:21:37;;;;;;;2.25;1.23;;;;;;;21.50;38.95;100308.88;4141566;28;20116;-41
2021/05/17 12:23:46;;;;;;;10.00;1.15;;;;;;;21.51;39.19;100291.84;4147824;28;20061;-41
2021/05/17 12:25:47;;;;;;;2.95;1.10;;;;;;;21.51;39.19;100307.75;4139634;28;20563;-41
2021/05/17 12:27:48;;;;;;;3.25;1.00;;;;;;;21.62;38.90;100323.09;4143335;28;20033;-41
2021/05/17 12:30:14;;;;;;;3.08;1.17;;;;;;;21.65;39.15;100321.66;4141043;28;20550;-42
2021/05/17 12:32:15;;;;;;;1.73;1.08;;;;;;;21.71;39.29;100318.44;4138184;28;20038;-41
2021/05/17 12:34:16;;;;;;;4.10;1.05;;;;;;;21.76;39.33;100325.03;4141728;28;20488;-42
2021/05/17 12:36:16;;;;;;;3.72;1.00;;;;;;;21.82;39.52;100337.72;4140466;28;20040;-42
2021/05/17 12:38:20;;;;;;;4.20;1.15;;;;;;;21.86;39.59;100328.44;4138169;28;20597;-42
2021/05/17 12:40:23;;;;;;;2.03;1.23;;;;;;;21.91;39.38;100333.06;4143186;28;20037;-42
2021/05/17 12:42:24;;;;;;;4.38;0.80;;;;;;;21.84;39.29;100333.50;4141586;28;20096;-40
2021/05/17 12:44:35;;;;;;;3.03;0.90;;;;;;;21.82;39.20;100346.09;4141232;28;20042;-41
2021/05/17 12:46:35;;;;;;;3.08;0.73;;;;;;;21.78;39.48;100351.47;4145704;28;20773;-41
2021/05/17 12:48:46;;;;;;;2.97;1.23;;;;;;;21.67;40.02;100339.72;4141555;28;20045;-41
2021/05/17 12:50:55;;;;;;;2.03;1.00;;;;;;;21.80;39.42;100365.91;4141511;28;20435;-41
2021/05/17 12:53:06;;;;;;;4.20;1.08;;;;;;;21.79;39.91;100360.63;4141641;28;20017;-41
2021/05/17 12:55:08;;;;;;;0.95;0.85;;;;;;;21.82;39.68;100365.59;4142057;28;20495;-44
2021/05/17 12:57:13;;;;;;;4.28;1.00;;;;;;;21.82;39.34;100371.16;4141045;28;20018;-42
2021/05/17 12:59:18;;;;;;;0.90;0.90;;;;;;;21.87;39.66;100376.63;4143081;28;20094;-41
2021/05/17 13:01:20;;;;;;;5.20;1.23;;;;;;;21.89;39.84;100372.41;4140023;28;20468;-42
2021/05/17 13:03:26;;;;;;;4.90;1.08;;;;;;;21.92;39.75;100379.31;4145362;28;20029;-42
2021/05/17 13:05:27;;;;;;;2.47;0.93;;;;;;;21.93;39.26;100380.94;4138430;28;20459;-42
2021/05/17 13:07:27;;;;;;;3.70;1.00;;;;;;;21.97;39.24;100384.78;4140833;28;20072;-41
2021/05/17 13:09:28;;;;;;;2.20;0.80;;;;;;;21.99;39.56;100373.34;4146126;28;20157;-42
2021/05/17 13:11:40;;;;;;;5.30;0.93;;;;;;;21.95;39.56;100378.69;4142988;28;20041;-42
2021/05/17 13:13:58;;;;;;;5.90;0.88;;;;;;;22.07;39.49;100380.97;4140669;28;20034;-41
2021/05/17 13:16:00;;;;;;;3.38;0.80;;;;;;;22.12;39.49;100380.88;4142114;28;20379;-41
2021/05/17 13:18:08;;;;;;;2.63;1.27;;;;;;;22.14;39.30;100388.91;4139295;28;20027;-42
2021/05/17 13:20:13;;;;;;;1.90;1.00;;;;;;;22.14;39.62;100391.69;4137619;28;20091;-43
2021/05/17 13:31:42;;;;;;;6.32;1.00;;;;;;;22.27;39.53;100407.56;4142214;28;20080;-41
2021/05/17 13:33:42;;;;;;;0.93;0.82;;;;;;;22.26;39.23;100412.31;4142065;28;20089;-40
2021/05/17 13:35:42;;;;;;;1.38;0.65;;;;;;;22.28;39.34;100414.78;4141211;28;20042;-41
2021/05/17 13:37:43;;;;;;;1.17;0.60;;;;;;;22.30;39.22;100420.88;4142205;28;20400;-41
2021/05/17 13:39:44;;;;;;;3.38;0.90;;;;;;;22.30;39.54;100425.63;4140201;28;20041;-41
2021/05/17 13:41:44;;;;;;;2.00;1.10;;;;;;;22.33;39.41;100431.41;4151018;28;20036;-41
2021/05/17 13:43:44;;;;;;;2.55;0.77;;;;;;;22.34;39.21;100427.47;4137830;28;20052;-40
2021/05/17 13:45:48;;;;;;;0.98;0.77;;;;;;;22.37;39.25;100440.78;4138621;28;20030;-40
2021/05/17 13:47:49;;;;;;;0.52;0.50;;;;;;;22.35;39.55;100431.09;4140387;28;20042;-41
2021/05/17 13:49:49;;;;;;;1.27;0.75;;;;;;;22.45;39.11;100442.03;4140701;28;20034;-40
2021/05/17 13:51:50;;;;;;;2.45;0.95;;;;;;;22.44;39.33;100446.75;4139551;28;20525;-41
2021/05/17 13:53:51;;;;;;;1.52;0.93;;;;;;;22.49;39.27;100442.19;4143511;28;20033;-43
2021/05/17 13:55:52;;;;;;;1.52;0.95;;;;;;;22.42;39.37;100442.66;4143334;28;20038;-42
2021/05/17 13:57:53;;;;;;;1.33;0.73;;;;;;;22.44;39.28;100446.75;4141021;28;20034;-42
2021/05/17 13:59:53;;;;;;;3.63;0.93;;;;;;;22.51;39.39;100459.44;4138843;28;20116;-43
2021/05/17 14:01:55;;;;;;;3.55;1.20;;;;;;;22.53;39.32;100468.34;4140786;28;20026;-40
2021/05/17 14:03:55;;;;;;;1.23;0.70;;;;;;;22.56;39.33;100470.50;4144077;28;20037;-42
2021/05/17 14:05:56;;;;;;;1.13;0.82;;;;;;;22.60;39.39;100485.44;4141822;28;20030;-40
2021/05/17 14:07:56;;;;;;;3.28;0.90;;;;;;;22.56;39.29;100476.91;4141629;28;20404;-40
2021/05/17 14:09:57;;;;;;;0.90;0.70;;;;;;;22.57;39.17;100472.13;4144252;28;20042;-43
2021/05/17 14:11:58;;;;;;;2.00;0.88;;;;;;;22.58;38.92;100488.56;4144266;28;20190;-40
2021/05/17 14:13:58;;;;;;;3.03;0.98;;;;;;;22.63;39.21;100482.88;4144634;28;20114;-41
2021/05/17 14:15:59;;;;;;;0.60;0.60;;;;;;;22.60;39.03;100489.09;4145123;28;20045;-41
2021/05/17 14:17:59;;;;;;;3.10;1.02;;;;;;;22.65;39.19;100482.56;4144946;28;20500;-42
2021/05/17 14:20:00;;;;;;;3.22;0.75;;;;;;;22.70;38.96;100499.22;4150939;28;20504;-43
2021/05/17 14:22:00;;;;;;;1.52;0.75;;;;;;;22.68;38.94;100500.66;4143474;28;20125;-42
2021/05/17 14:24:01;;;;;;;2.28;0.80;;;;;;;22.71;39.11;100502.81;4140881;28;20033;-42
2021/05/17 14:26:02;;;;;;;2.65;1.00;;;;;;;22.65;39.31;100504.03;4143628;28;20034;-42
2021/05/17 14:28:04;;;;;;;4.05;0.90;;;;;;;22.72;38.92;100505.28;4145105;28;20480;-43
2021/05/17 14:30:12;;;;;;;4.00;0.80;;;;;;;22.74;38.89;100505.81;4143494;28;20431;-41
2021/05/17 14:32:13;;;;;;;2.67;0.82;;;;;;;22.82;38.90;100512.63;4143675;28;20097;-40
2021/05/17 14:34:13;;;;;;;1.05;0.65;;;;;;;22.79;38.85;100516.03;4142888;28;20087;-40
2021/05/17 14:36:14;;;;;;;1.35;0.65;;;;;;;22.79;39.20;100519.66;4148469;28;20041;-40
2021/05/17 14:38:14;;;;;;;1.20;0.70;;;;;;;22.79;39.14;100525.22;4144069;28;20033;-40
2021/05/17 14:40:15;;;;;;;6.63;0.90;;;;;;;22.73;39.22;100520.91;4146220;28;20132;-40
2021/05/17 14:42:16;;;;;;;1.42;0.73;;;;;;;22.86;38.83;100532.34;4147259;28;20416;-41
2021/05/17 14:44:17;;;;;;;3.22;1.00;;;;;;;22.68;38.29;100536.94;4144534;28;20033;-40
2021/05/17 14:46:17;;;;;;;1.92;0.90;;;;;;;22.56;38.09;100537.44;4144383;28;20113;-40
2021/05/17 14:48:21;;;;;;;11.10;1.15;;;;;;;22.54;37.93;100551.72;4142920;28;20050;-40
2021/05/17 14:50:21;;;;;;;2.55;0.75;;;;;;;22.56;38.24;100548.59;4142143;28;20056;-41
2021/05/17 14:52:27;;;;;;;4.38;0.90;;;;;;;22.50;38.32;100547.88;4144632;28;20136;-41
2021/05/17 14:54:27;;;;;;;1.40;0.68;;;;;;;22.51;38.27;100554.28;4142739;28;20456;-42
2021/05/17 14:56:28;;;;;;;3.15;1.23;;;;;;;22.54;38.17;100562.88;4143870;28;20045;-41
2021/05/17 14:58:29;;;;;;;3.80;0.80;;;;;;;22.52;38.19;100553.16;4144774;28;20034;-40
2021/05/17 15:00:29;;;;;;;2.10;1.00;;;;;;;22.60;38.13;100567.19;4143703;28;20117;-40
2021/05/17 15:02:29;;;;;;;3.88;1.00;;;;;;;22.47;38.52;100564.41;4147072;28;20030;-40
2021/05/17 15:04:30;;;;;;;4.93;0.93;;;;;;;22.62;38.51;100564.91;4145879;28;20827;-42
2021/05/17 15:06:30;;;;;;;4.35;1.08;;;;;;;22.72;37.95;100568.66;4144817;28;20038;-41
2021/05/17 15:08:31;;;;;;;2.85;0.70;;;;;;;22.70;38.07;100568.97;4151023;28;20044;-41
2021/05/17 15:10:31;;;;;;;1.85;0.90;;;;;;;22.74;38.02;100572.78;4149009;28;20489;-41
2021/05/17 15:12:32;;;;;;;4.03;0.80;;;;;;;22.75;38.15;100584.75;4141834;28;20059;-41
2021/05/17 15:14:32;;;;;;;1.23;0.90;;;;;;;22.70;38.34;100580.13;4147592;28;20610;-42
2021/05/17 15:16:33;;;;;;;3.35;1.00;;;;;;;22.77;38.14;100583.31;4144143;28;20030;-42
2021/05/17 15:18:33;;;;;;;2.50;1.10;;;;;;;22.73;38.01;100582.28;4147022;28;20034;-43
2021/05/17 15:20:34;;;;;;;5.05;0.93;;;;;;;22.77;38.12;100599.22;4150617;28;20120;-41
2021/05/17 15:22:35;;;;;;;2.45;0.73;;;;;;;22.78;38.05;100593.31;4141710;28;20101;-41
2021/05/17 15:24:35;;;;;;;3.70;0.77;;;;;;;22.83;38.41;100595.19;4144452;28;20045;-41
2021/05/17 15:26:35;;;;;;;3.35;0.88;;;;;;;22.83;38.30;100600.75;4145305;28;20037;-41
2021/05/17 15:28:36;;;;;;;3.95;1.13;;;;;;;22.79;38.24;100596.97;4141364;28;20042;-41
2021/05/17 15:30:37;;;;;;;2.17;0.80;;;;;;;22.86;38.00;100599.31;4145906;28;20049;-41
2021/05/17 15:32:38;;;;;;;3.55;0.90;;;;;;;22.83;38.30;100597.97;4142623;28;20061;-42
2021/05/17 15:34:39;;;;;;;1.77;0.98;;;;;;;22.83;38.12;100599.94;4140975;28;20113;-41
2021/05/17 15:36:39;;;;;;;2.90;1.23;;;;;;;22.85;38.03;100600.44;4148850;28;20506;-39
2021/05/17 15:38:41;;;;;;;1.98;0.70;;;;;;;22.88;38.24;100602.63;4143807;28;20030;-40
2021/05/17 15:40:44;;;;;;;3.47;1.10;;;;;;;22.86;38.01;100607.69;4146586;28;20518;-40
2021/05/17 15:42:45;;;;;;;1.25;0.95;;;;;;;22.92;38.00;100606.44;4143820;28;20033;-41
2021/05/17 15:44:46;;;;;;;3.83;1.10;;;;;;;22.84;37.85;100604.41;4141212;28;20775;-40
2021/05/17 15:46:47;;;;;;;1.58;0.93;;;;;;;22.89;37.88;100607.88;4157870;28;20025;-40
2021/05/17 15:48:48;;;;;;;4.10;1.20;;;;;;;22.96;37.96;100616.66;4143399;28;20365;-40
2021/05/17 15:50:48;;;;;;;2.05;0.70;;;;;;;22.98;37.97;100622.75;4143784;28;20072;-41
2021/05/17 15:52:49;;;;;;;2.42;0.80;;;;;;;23.00;37.98;100630.00;4143927;28;20042;-41
2021/05/17 15:54:49;;;;;;;1.75;0.85;;;;;;;23.01;37.89;100635.28;4142534;28;20030;-39
2021/05/17 15:56:50;;;;;;;4.32;0.93;;;;;;;23.02;37.93;100636.94;4141775;28;20771;-40
2021/05/17 15:58:50;;;;;;;5.15;1.38;;;;;;;22.66;37.34;100642.44;4140034;28;20091;-41
2021/05/17 16:00:51;;;;;;;3.10;1.10;;;;;;;22.52;37.13;100648.78;4138896;28;20056;-40
2021/05/17 16:02:52;;;;;;;3.25;1.30;;;;;;;22.56;37.64;100649.84;4143024;28;20562;-40
2021/05/17 16:04:52;;;;;;;1.92;1.08;;;;;;;22.59;37.56;100654.00;4143337;28;20725;-40
2021/05/17 16:06:53;;;;;;;4.30;1.30;;;;;;;22.57;37.46;100654.28;4142571;28;20030;-40
2021/05/17 16:08:53;;;;;;;3.45;1.50;;;;;;;22.55;37.58;100658.53;4143095;28;20049;-41
2021/05/17 16:10:56;;;;;;;3.75;1.45;;;;;;;22.53;37.72;100650.47;4143691;28;20437;-40
2021/05/17 16:13:05;;;;;;;2.70;1.10;;;;;;;22.52;37.51;100653.56;4141505;28;20104;-41
2021/05/17 16:15:11;;;;;;;3.75;1.20;;;;;;;22.55;37.67;100662.13;4157769;28;20037;-40
2021/05/17 16:22:01;;;;;;;2.20;0.90;;;;;;;22.65;37.62;100658.31;4142615;28;20052;-40
2021/05/17 16:24:01;;;;;;;4.03;1.10;;;;;;;22.68;37.74;100663.31;4140316;28;20042;-40
2021/05/17 16:26:02;;;;;;;2.40;1.10;;;;;;;22.63;37.41;100655.00;4143051;28;20029;-40
2021/05/17 16:28:02;;;;;;;2.90;1.17;;;;;;;22.71;37.46;100667.44;4143785;28;20037;-40
2021/05/17 16:30:03;;;;;;;1.77;0.85;;;;;;;22.69;37.55;100664.94;4142010;28;20037;-40
2021/05/17 16:32:05;;;;;;;2.72;1.13;;;;;;;22.71;37.54;100668.28;4142875;28;20025;-39
2021/05/17 16:34:07;;;;;;;3.22;1.08;;;;;;;22.74;37.35;100672.41;4142135;28;20038;-41
2021/05/17 16:36:07;;;;;;;4.13;1.10;;;;;;;22.65;37.63;100668.63;4143712;28;20033;-40
2021/05/17 16:38:08;;;;;;;3.03;1.27;;;;;;;22.72;37.40;100671.88;4144588;28;20076;-40
2021/05/17 16:40:08;;;;;;;2.05;0.90;;;;;;;22.78;37.44;100677.03;4141323;28;20030;-40
2021/05/17 16:42:10;;;;;;;4.57;1.08;;;;;;;22.78;37.29;100685.41;4143335;28;20208;-40
2021/05/17 16:44:13;;;;;;;2.35;0.75;;;;;;;22.75;37.09;100680.47;4137262;28;20057;-41
2021/05/17 16:46:14;;;;;;;6.50;1.25;;;;;;;22.69;37.06;100687.28;4136222;28;20041;-41
2021/05/17 16:48:14;;;;;;;5.90;1.17;;;;;;;22.63;37.51;100691.28;4133556;28;20026;-40
2021/05/17 16:50:15;;;;;;;3.50;1.05;;;;;;;22.65;37.42;100693.75;4140073;28;20531;-41
2021/05/17 16:52:15;;;;;;;4.72;0.95;;;;;;;22.75;37.11;100690.81;4142260;28;20030;-40
2021/05/17 16:54:19;;;;;;;7.30;0.73;;;;;;;22.75;37.36;100696.38;4141385;28;20041;-40
2021/05/17 16:56:19;;;;;;;4.35;1.10;;;;;;;22.77;36.98;100692.16;4142398;28;20115;-40
2021/05/17 16:58:19;;;;;;;10.02;1.00;;;;;;;22.82;37.18;100705.19;4144817;28;20440;-40
2021/05/17 17:00:20;;;;;;;8.15;1.38;;;;;;;22.78;37.52;100713.31;4143021;28;20080;-40
2021/05/17 17:02:21;;;;;;;14.27;1.52;;;;;;;22.72;37.38;100710.94;4142799;28;20563;-40
2021/05/17 17:04:22;;;;;;;8.18;1.05;;;;;;;22.68;37.62;100707.97;4143964;28;20033;-40
2021/05/17 17:06:22;;;;;;;5.38;1.40;;;;;;;22.63;37.31;100714.44;4140539;28;20030;-40
2021/05/17 17:08:23;;;;;;;7.68;1.20;;;;;;;22.58;37.13;100708.13;4145644;28;20042;-41
2021/05/17 17:10:23;;;;;;;9.27;1.42;;;;;;;22.62;37.32;100706.38;4150262;28;20034;-40
2021/05/17 17:12:24;;;;;;;8.23;1.05;;;;;;;22.66;37.48;100710.22;4142737;28;20038;-40
2021/05/17 17:14:25;;;;;;;9.07;1.40;;;;;;;22.54;37.36;100715.44;4141003;28;20108;-40
2021/05/17 17:16:25;;;;;;;6.95;1.40;;;;;;;22.55;37.34;100715.13;4142735;28;20029;-40
2021/05/17 17:18:27;;;;;;;9.27;1.30;;;;;;;22.55;37.40;100715.13;4140171;28;20745;-41
2021/05/17 17:20:27;;;;;;;4.22;1.58;;;;;;;22.48;37.25;100727.81;4143000;28;20057;-41
2021/05/17 17:22:28;;;;;;;8.02;1.77;;;;;;;22.48;37.32;100725.03;4140615;28;20034;-41
2021/05/17 17:24:30;;;;;;;6.22;1.33;;;;;;;22.47;36.94;100729.78;4141630;28;20041;-40
2021/05/17 17:26:31;;;;;;;5.47;1.50;;;;;;;22.46;37.27;100733.69;4141910;28;20042;-41
2021/05/17 17:28:31;;;;;;;6.25;1.30;;;;;;;22.45;37.03;100732.88;4139370;28;20065;-41
2021/05/17 17:30:32;;;;;;;4.82;1.25;;;;;;;22.50;36.83;100733.94;4137492;28;20034;-41
2021/05/17 17:32:33;;;;;;;10.57;1.70;;;;;;;22.38;37.10;100737.22;4136504;28;20034;-41
2021/05/17 17:34:37;;;;;;;4.30;0.93;;;;;;;22.39;37.27;100736.91;4139710;28;20045;-40
2021/05/17 17:36:38;;;;;;;7.55;1.27;;;;;;;22.30;37.29;100730.38;4134692;28;20039;-41
2021/05/17 17:38:38;;;;;;;4.40;1.40;;;;;;;22.25;37.23;100738.84;4137801;28;20443;-41
2021/05/17 17:40:39;;;;;;;6.75;1.30;;;;;;;22.30;37.35;100735.13;4139961;28;20034;-41
2021/05/17 17:42:39;;;;;;;7.18;1.52;;;;;;;22.29;37.14;100739.03;4143075;28;20567;-41
2021/05/17 17:44:40;;;;;;;3.55;1.30;;;;;;;22.23;37.19;100749.47;4143777;28;20121;-40
2021/05/17 17:46:42;;;;;;;5.88;1.50;;;;;;;22.11;37.67;100740.75;4142341;28;20116;-40
2021/05/17 17:51:02;;;;;;;5.65;1.30;;;;;;;22.05;37.08;100746.38;4143753;28;20096;-41
2021/05/17 17:53:02;;;;;;;3.97;1.50;;;;;;;22.12;37.18;100745.19;4142692;28;20034;-41
2021/05/17 17:55:04;;;;;;;6.05;1.42;;;;;;;22.08;37.13;100743.00;4141840;28;20037;-40
2021/05/17 17:57:05;;;;;;;7.13;1.65;;;;;;;22.11;37.06;100740.75;4144433;28;20025;-40
2021/05/17 17:59:07;;;;;;;3.42;1.60;;;;;;;22.12;36.95;100731.25;4145280;28;20510;-41
2021/05/17 18:01:07;;;;;;;5.78;1.30;;;;;;;22.04;37.62;100733.59;4142925;28;20048;-41
2021/05/17 18:03:08;;;;;;;4.90;1.67;;;;;;;22.05;37.36;100734.44;4142927;28;20599;-41
2021/05/17 18:05:08;;;;;;;5.00;1.48;;;;;;;22.15;36.92;100747.34;4133409;28;20030;-41
2021/05/17 18:07:09;;;;;;;3.65;1.60;;;;;;;22.02;37.47;100760.94;4145260;28;20439;-41
2021/05/17 18:09:12;;;;;;;4.40;1.50;;;;;;;22.14;37.25;100759.66;4142485;28;20095;-40
2021/05/17 18:11:12;;;;;;;5.75;1.30;;;;;;;22.10;37.38;100770.56;4143270;28;20546;-41
2021/05/17 18:13:15;;;;;;;2.55;0.90;;;;;;;22.23;37.11;100758.66;4140480;28;20029;-41
2021/05/17 18:15:16;;;;;;;4.60;1.40;;;;;;;22.29;36.90;100758.56;4144297;28;20684;-40
2021/05/17 18:17:17;;;;;;;2.17;0.90;;;;;;;22.17;36.97;100759.06;4151304;28;20464;-40
2021/05/17 18:19:18;;;;;;;3.08;1.30;;;;;;;22.25;37.12;100763.94;4143878;28;20109;-41
2021/05/17 18:21:21;;;;;;;5.13;1.27;;;;;;;22.27;37.17;100761.66;4150358;28;20905;-41
2021/05/17 18:23:21;;;;;;;9.25;2.10;;;;;;;22.31;38.77;100767.47;4141383;28;20176;-41
2021/05/17 18:25:22;;;;;;;8.30;1.95;;;;;;;22.35;38.27;100774.88;4144525;28;20468;-40
2021/05/17 18:27:22;;;;;;;7.43;1.92;;;;;;;22.39;37.67;100775.94;4145355;28;20626;-40
2021/05/17 18:29:29;;;;;;;8.18;2.05;;;;;;;22.39;37.31;100780.69;4141903;28;20038;-39
2021/05/17 18:31:39;;;;;;;9.85;1.90;;;;;;;22.39;37.43;100778.72;4144845;28;20038;-40
2021/05/17 18:33:42;;;;;;;9.77;2.25;;;;;;;22.14;37.96;100782.78;4143616;28;20038;-40
2021/05/17 18:37:49;;;;;;;6.45;1.75;;;;;;;22.09;38.55;100796.81;4145142;28;20598;-40
2021/05/17 18:39:49;;;;;;;6.50;1.98;;;;;;;22.12;39.28;100790.63;4143817;28;20066;-41
2021/05/17 18:41:49;;;;;;;9.18;1.77;;;;;;;22.27;38.53;100789.53;4143391;28;20026;-41
2021/05/17 18:46:07;;;;;;;19.98;3.33;;;;;;;22.22;41.84;100801.59;4141253;28;20385;-40
2021/05/17 18:48:13;;;;;;;13.60;2.65;;;;;;;22.23;41.73;100799.66;4137526;28;20039;-40
2021/05/17 18:50:14;;;;;;;11.43;2.70;;;;;;;22.21;41.17;100799.13;4136585;28;20160;-42
2021/05/17 18:52:14;;;;;;;10.32;2.88;;;;;;;22.20;41.35;100797.47;4141348;28;20038;-40
2021/05/17 18:54:15;;;;;;;13.55;2.70;;;;;;;22.20;41.00;100800.25;4138451;28;20034;-40
2021/05/17 18:56:18;;;;;;;11.60;2.60;;;;;;;22.13;41.13;100813.75;4140086;28;20309;-41
2021/05/17 18:58:19;;;;;;;10.10;2.47;;;;;;;22.17;40.93;100800.88;4137867;28;20116;-40
2021/05/17 19:00:21;;;;;;;16.08;2.97;;;;;;;21.95;40.44;100807.84;4134878;28;20042;-40
2021/05/17 19:02:21;;;;;;;9.73;2.90;;;;;;;22.15;39.68;100806.75;4136026;28;20045;-40
2021/05/17 19:04:22;;;;;;;13.82;2.20;;;;;;;22.03;40.18;100814.75;4140806;28;20360;-40
2021/05/17 19:06:22;;;;;;;14.45;2.88;;;;;;;22.12;39.91;100812.94;4131723;28;20034;-40
2021/05/17 19:08:23;;;;;;;10.82;2.50;;;;;;;21.89;40.03;100804.31;4131803;28;20784;-40
2021/05/17 19:10:23;;;;;;;12.63;2.70;;;;;;;22.00;39.73;100793.03;4139052;28;20511;-40
2021/05/17 19:12:25;;;;;;;8.45;2.40;;;;;;;22.12;39.50;100812.94;4128216;28;20459;-40
2021/05/17 19:14:27;;;;;;;11.73;2.45;;;;;;;22.03;39.68;100814.75;4135741;28;20488;-39
2021/05/17 19:16:27;;;;;;;6.40;2.30;;;;;;;21.58;39.68;100814.19;4136307;28;20030;-39
2021/05/17 19:18:28;;;;;;;8.27;2.03;;;;;;;21.56;39.55;100820.06;4139152;28;20049;-39
2021/05/17 19:20:28;;;;;;;10.90;2.63;;;;;;;21.80;39.43;100817.25;4137674;28;20049;-39